createdAt,value
2018-02-21T00:02:57.078Z,94883.16
2018-02-21T00:06:00.372Z,94888.59
2018-02-21T00:09:03.666Z,94883.20
2018-02-21T00:12:06.958Z,94889.07
2018-02-21T00:15:10.397Z,94890.54
2018-02-21T00:18:13.694Z,94895.34
2018-02-21T00:21:17.160Z,94890.27
2018-02-21T00:24:20.439Z,94886.16
2018-02-21T00:27:23.719Z,94877.70
2018-02-21T00:30:27.768Z,94883.97
2018-02-21T00:33:31.038Z,94881.75
2018-02-21T00:36:34.347Z,94879.74
2018-02-21T00:39:37.632Z,94883.03
2018-02-21T00:42:40.914Z,94888.88
2018-02-21T00:45:45.292Z,94885.78
2018-02-21T00:48:48.575Z,94882.34
2018-02-21T00:51:53.114Z,94878.86
2018-02-21T00:54:56.402Z,94875.62
2018-02-21T00:57:59.689Z,94875.62
2018-02-21T01:01:02.986Z,94887.33
2018-02-21T01:04:06.265Z,94881.44
2018-02-21T01:07:13.182Z,94879.06
2018-02-21T01:10:16.454Z,94881.86
2018-02-21T01:13:19.757Z,94886.34
2018-02-21T01:16:23.855Z,94881.56
2018-02-21T01:19:28.730Z,94885.86
2018-02-21T01:22:32.218Z,94884.31
2018-02-21T01:25:35.504Z,94888.85
2018-02-21T01:28:38.796Z,94890.38
2018-02-21T01:31:42.080Z,94887.74
2018-02-21T01:34:46.121Z,94887.77
2018-02-21T01:37:49.400Z,94892.21
2018-02-21T01:40:52.681Z,94897.23
2018-02-21T01:43:56.733Z,94894.96
2018-02-21T01:47:00.047Z,94884.83
2018-02-21T01:50:03.958Z,94880.51
2018-02-21T01:53:07.250Z,94884.43
2018-02-21T01:56:10.525Z,94887.92
2018-02-21T01:59:14.492Z,94884.41
2018-02-21T02:02:17.778Z,94880.14
2018-02-21T02:05:21.058Z,94876.90
2018-02-21T02:08:25.992Z,94878.89
2018-02-21T02:11:29.262Z,94887.16
2018-02-21T02:14:32.554Z,94887.43
2018-02-21T02:17:35.838Z,94890.27
2018-02-21T02:20:39.870Z,94899.25
2018-02-21T02:23:43.910Z,94900.38
2018-02-21T02:26:47.204Z,94897.23
2018-02-21T02:29:50.489Z,94899.41
2018-02-21T02:32:53.783Z,94904.38
2018-02-21T02:35:57.873Z,94901.84
2018-02-21T02:39:19.674Z,94901.75
2018-02-21T02:42:22.960Z,94906.58
2018-02-21T02:45:26.234Z,94901.61
2018-02-21T02:48:29.524Z,94906.27
2018-02-21T02:51:32.794Z,94905.58
2018-02-21T02:54:36.855Z,94906.62
2018-02-21T02:57:41.869Z,94907.72
2018-02-21T03:00:45.146Z,94911.22
2018-02-21T03:03:49.189Z,94908.50
2018-02-21T03:06:52.474Z,94904.75
2018-02-21T03:09:57.637Z,94905.78
2018-02-21T03:13:00.922Z,94902.77
2018-02-21T03:16:04.226Z,94903.55
2018-02-21T03:19:07.499Z,94906.91
2018-02-21T03:22:11.543Z,94908.00
2018-02-21T03:25:14.813Z,94908.52
2018-02-21T03:28:18.861Z,94902.87
2018-02-21T03:31:22.150Z,94906.84
2018-02-21T03:34:25.612Z,94906.66
2018-02-21T03:37:29.685Z,94901.34
2018-02-21T03:40:32.977Z,94905.80
2018-02-21T03:43:36.283Z,94906.36
2018-02-21T03:46:39.569Z,94906.77
2018-02-21T03:49:42.869Z,94908.87
2018-02-21T03:52:46.189Z,94901.59
2018-02-21T03:55:49.453Z,94906.58
2018-02-21T03:58:52.739Z,94916.46
2018-02-21T04:01:56.015Z,94907.30
2018-02-21T04:04:59.302Z,94918.02
2018-02-21T04:08:03.350Z,94912.56
2018-02-21T04:11:06.617Z,94920.93
2018-02-21T04:14:10.658Z,94920.50
2018-02-21T04:17:13.978Z,94925.14
2018-02-21T04:20:17.253Z,94926.47
2018-02-21T04:23:20.529Z,94928.48
2018-02-21T04:26:24.572Z,94931.03
2018-02-21T04:29:29.894Z,94930.53
2018-02-21T04:32:34.982Z,94929.88
2018-02-21T04:35:38.297Z,94933.05
2018-02-21T04:38:42.421Z,94931.06
2018-02-21T04:41:45.701Z,94928.02
2018-02-21T04:44:48.977Z,94934.33
2018-02-21T04:47:52.260Z,94936.23
2018-02-21T04:50:55.544Z,94942.48
2018-02-21T04:53:59.945Z,94949.20
2018-02-21T05:00:48.508Z,94954.80
2018-02-21T05:03:51.805Z,94953.84
2018-02-21T05:06:55.083Z,94963.87
2018-02-21T05:09:58.365Z,94957.78
2018-02-21T05:13:02.971Z,94961.92
2018-02-21T05:16:06.272Z,94958.63
2018-02-21T05:19:09.540Z,94964.16
2018-02-21T05:22:14.466Z,94959.57
2018-02-21T05:25:19.346Z,94963.37
2018-02-21T05:28:27.134Z,94967.81
2018-02-21T05:31:31.288Z,94978.00
2018-02-21T05:34:34.573Z,94967.80
2018-02-21T05:37:37.843Z,94975.72
2018-02-21T05:40:41.881Z,94972.19
2018-02-21T05:43:45.156Z,94970.80
2018-02-21T05:46:49.262Z,94971.94
2018-02-21T05:49:54.301Z,94979.80
2018-02-21T05:52:58.338Z,94986.30
2018-02-21T05:56:01.774Z,94988.64
2018-02-21T05:59:05.062Z,94987.59
2018-02-21T06:02:08.331Z,94989.81
2018-02-21T06:05:11.653Z,94990.25
2018-02-21T06:08:15.024Z,94984.61
2018-02-21T06:11:18.368Z,94983.61
2018-02-21T06:14:21.614Z,94989.50
2018-02-21T06:17:25.686Z,94999.57
2018-02-21T06:20:28.989Z,94995.30
2018-02-21T06:23:32.742Z,94991.66
2018-02-21T06:26:36.791Z,94994.47
2018-02-21T06:29:40.197Z,94996.50
2018-02-21T06:32:43.471Z,94998.50
2018-02-21T06:35:46.762Z,95000.98
2018-02-21T06:38:50.037Z,94993.34
2018-02-21T06:41:54.069Z,94999.34
2018-02-21T06:44:58.139Z,94994.41
2018-02-21T06:48:01.570Z,94990.30
2018-02-21T06:51:05.621Z,94990.18
2018-02-21T06:54:08.897Z,94989.81
2018-02-21T06:57:12.206Z,94987.27
2018-02-21T07:00:15.486Z,94991.75
2018-02-21T07:03:18.777Z,94989.98
2018-02-21T07:06:22.817Z,94991.25
2018-02-21T07:09:27.074Z,94988.93
2018-02-21T07:12:30.354Z,94994.10
2018-02-21T07:15:34.644Z,94991.09
2018-02-21T07:18:38.642Z,95000.69
2018-02-21T07:21:42.699Z,95002.84
2018-02-21T07:24:45.980Z,95002.81
2018-02-21T07:27:49.247Z,95010.53
2018-02-21T07:30:53.308Z,95012.47
2018-02-21T07:33:56.593Z,95012.78
2018-02-21T07:36:59.881Z,95018.16
2018-02-21T07:40:03.407Z,95012.24
2018-02-21T07:43:07.512Z,95018.53
2018-02-21T07:46:10.790Z,95020.02
2018-02-21T07:49:14.074Z,95021.39
2018-02-21T07:52:18.116Z,95015.23
2018-02-21T07:55:21.406Z,95019.84
2018-02-21T07:58:24.672Z,95024.27
2018-02-21T08:01:27.966Z,95025.17
2018-02-21T08:04:32.020Z,95023.16
2018-02-21T08:07:36.328Z,95022.00
2018-02-21T08:10:40.369Z,95022.05
2018-02-21T08:13:43.648Z,95026.19
2018-02-21T08:16:46.962Z,95037.52
2018-02-21T08:19:51.905Z,95036.88
2018-02-21T08:22:55.189Z,95039.33
2018-02-21T08:25:58.462Z,95043.16
2018-02-21T08:29:02.500Z,95043.28
2018-02-21T08:32:07.030Z,95039.87
2018-02-21T08:35:10.296Z,95047.20
2018-02-21T08:38:14.330Z,95047.73
2018-02-21T08:41:17.618Z,95041.98
2018-02-21T08:44:21.642Z,95044.83
2018-02-21T08:47:24.945Z,95048.23
2018-02-21T08:50:28.223Z,95044.36
2018-02-21T08:53:32.253Z,95050.02
2018-02-21T08:56:35.530Z,95050.60
2018-02-21T08:59:39.591Z,95044.47
2018-02-21T09:02:42.893Z,95052.64
2018-02-21T09:05:46.354Z,95046.81
2018-02-21T09:08:49.726Z,95044.00
2018-02-21T09:11:52.999Z,95037.78
2018-02-21T09:14:56.284Z,95033.38
2018-02-21T09:17:59.540Z,95038.11
2018-02-21T09:21:03.581Z,95028.89
2018-02-21T09:24:06.866Z,95032.56
2018-02-21T09:27:10.165Z,95038.44
2018-02-21T09:30:13.433Z,95039.81
2018-02-21T09:33:16.747Z,95033.86
2018-02-21T09:36:20.809Z,95030.37
2018-02-21T09:39:24.074Z,95030.61
2018-02-21T09:42:27.365Z,95028.16
2018-02-21T09:45:31.402Z,95031.09
2018-02-21T09:48:34.703Z,95021.78
2018-02-21T09:51:37.997Z,95025.00
2018-02-21T09:54:41.268Z,95020.75
2018-02-21T09:57:45.297Z,95015.70
2018-02-21T10:00:48.566Z,95023.83
2018-02-21T10:03:52.599Z,95014.27
2018-02-21T10:06:55.874Z,95018.23
2018-02-21T10:09:59.904Z,95010.77
2018-02-21T10:13:03.949Z,95010.52
2018-02-21T10:16:07.226Z,95011.00
2018-02-21T10:19:10.832Z,95017.24
2018-02-21T10:22:14.187Z,95015.18
2018-02-21T10:25:17.448Z,95008.55
2018-02-21T10:28:20.718Z,95010.77
2018-02-21T10:31:24.015Z,95012.19
2018-02-21T10:34:27.275Z,95015.59
2018-02-21T10:37:30.546Z,95017.16
2018-02-21T10:40:33.802Z,95015.01
2018-02-21T10:43:37.081Z,95015.43
2018-02-21T10:46:41.590Z,95008.35
2018-02-21T10:49:44.884Z,95002.22
2018-02-21T10:52:48.149Z,95000.45
2018-02-21T10:55:51.419Z,94999.70
2018-02-21T10:58:55.606Z,94986.57
2018-02-21T11:01:58.871Z,94998.10
2018-02-21T11:05:02.135Z,94992.39
2018-02-21T11:08:05.418Z,94989.28
2018-02-21T11:11:09.455Z,94987.74
2018-02-21T11:14:13.051Z,94986.94
2018-02-21T11:17:16.330Z,94981.77
2018-02-21T11:20:20.370Z,94976.30
2018-02-21T11:23:23.645Z,94971.53
2018-02-21T11:26:27.686Z,94972.43
2018-02-21T11:29:30.955Z,94969.55
2018-02-21T11:32:35.134Z,94971.41
2018-02-21T11:35:38.510Z,94970.48
2018-02-21T11:38:41.798Z,94962.78
2018-02-21T11:41:45.075Z,94962.02
2018-02-21T11:44:49.304Z,94958.70
2018-02-21T11:47:52.623Z,94959.79
2018-02-21T11:50:55.956Z,94962.07
2018-02-21T11:53:59.209Z,94961.70
2018-02-21T11:57:02.476Z,94969.60
2018-02-21T12:00:06.527Z,94964.77
2018-02-21T12:03:09.914Z,94949.23
2018-02-21T12:06:14.257Z,94951.56
2018-02-21T12:09:17.541Z,94956.81
2018-02-21T12:12:20.858Z,94948.81
2018-02-21T12:15:24.132Z,94959.70
2018-02-21T12:18:27.475Z,94955.08
2018-02-21T12:21:30.763Z,94950.70
2018-02-21T12:24:34.053Z,94953.23
2018-02-21T12:27:37.707Z,94955.47
2018-02-21T12:30:41.757Z,94960.51
2018-02-21T12:33:46.070Z,94952.95
2018-02-21T12:36:49.350Z,94960.02
2018-02-21T12:39:52.618Z,94955.83
2018-02-21T12:42:55.890Z,94956.30
2018-02-21T12:45:59.152Z,94954.78
2018-02-21T12:49:02.534Z,94947.69
2018-02-21T12:52:06.653Z,94943.84
2018-02-21T12:55:10.840Z,94949.81
2018-02-21T12:58:14.152Z,94944.73
2018-02-21T13:01:17.458Z,94954.70
2018-02-21T13:04:21.551Z,94951.38
2018-02-21T13:07:24.845Z,94942.29
2018-02-21T13:10:28.180Z,94946.09
2018-02-21T13:13:32.366Z,94946.00
2018-02-21T13:16:35.657Z,94945.91
2018-02-21T13:19:39.007Z,94950.06
2018-02-21T13:22:42.304Z,94944.14
2018-02-21T13:25:45.574Z,94954.98
2018-02-21T13:28:49.611Z,94955.78
2018-02-21T13:31:53.956Z,94952.51
2018-02-21T13:34:57.242Z,94959.04
2018-02-21T13:38:00.543Z,94961.75
2018-02-21T13:41:03.810Z,94955.45
2018-02-21T13:44:07.982Z,94953.16
2018-02-21T13:47:11.335Z,94954.86
2018-02-21T13:50:15.470Z,94947.41
2018-02-21T13:53:18.774Z,94943.78
2018-02-21T13:56:22.052Z,94939.05
2018-02-21T13:59:25.586Z,94941.00
2018-02-21T14:02:29.019Z,94934.73
2018-02-21T14:05:32.872Z,94936.30
2018-02-21T14:08:36.540Z,94937.48
2018-02-21T14:11:39.817Z,94935.87
2018-02-21T14:14:43.133Z,94941.06
2018-02-21T14:17:46.878Z,94931.73
2018-02-21T14:20:50.153Z,94928.41
2018-02-21T14:23:54.194Z,94930.69
2018-02-21T14:26:57.493Z,94932.07
2018-02-21T14:30:00.740Z,94932.64
2018-02-21T14:33:04.035Z,94938.66
2018-02-21T14:36:07.346Z,94938.31
2018-02-21T14:39:11.426Z,94937.48
2018-02-21T14:42:14.715Z,94935.69
2018-02-21T14:45:18.403Z,94937.94
2018-02-21T14:48:21.660Z,94939.11
2018-02-21T14:51:24.943Z,94940.47
2018-02-21T14:54:28.239Z,94934.25
2018-02-21T14:57:31.525Z,94932.59
2018-02-21T15:00:34.889Z,94933.47
2018-02-21T15:03:38.598Z,94936.88
2018-02-21T15:06:41.997Z,94936.33
2018-02-21T15:09:45.502Z,94934.78
2018-02-21T15:12:53.307Z,94936.60
2018-02-21T15:15:57.661Z,94933.48
2018-02-21T15:19:00.944Z,94939.98
2018-02-21T15:22:04.226Z,94937.50
2018-02-21T15:25:07.510Z,94937.80
2018-02-21T15:28:11.552Z,94938.19
2018-02-21T15:31:14.851Z,94939.50
2018-02-21T15:34:18.133Z,94934.41
2018-02-21T15:37:23.132Z,94935.88
2018-02-21T15:40:26.406Z,94938.32
2018-02-21T15:43:29.777Z,94942.64
2018-02-21T15:46:33.104Z,94945.88
2018-02-21T15:49:36.473Z,94947.03
2018-02-21T15:52:39.750Z,94951.47
2018-02-21T15:55:43.798Z,94951.08
2018-02-21T15:58:47.071Z,94956.17
2018-02-21T16:01:51.134Z,94957.23
2018-02-21T16:04:54.395Z,94963.36
2018-02-21T16:07:57.666Z,94961.04
2018-02-21T16:11:01.717Z,94960.39
2018-02-21T16:14:04.978Z,94965.09
2018-02-21T16:17:08.307Z,94963.66
2018-02-21T16:20:11.670Z,94960.77
2018-02-21T16:23:15.006Z,94967.05
2018-02-21T16:26:18.554Z,94961.04
2018-02-21T16:29:24.577Z,94968.75
2018-02-21T16:32:29.457Z,94969.81
2018-02-21T16:35:34.458Z,94964.31
2018-02-21T16:38:37.905Z,94966.78
2018-02-21T16:41:42.095Z,94968.89
2018-02-21T16:44:48.015Z,94972.28
2018-02-21T16:47:51.326Z,94967.20
2018-02-21T16:50:54.649Z,94967.97
2018-02-21T16:54:03.360Z,94970.18
2018-02-21T16:57:06.654Z,94970.18
2018-02-21T17:00:10.025Z,94973.98
2018-02-21T17:03:13.492Z,94973.58
2018-02-21T17:06:17.579Z,94974.78
2018-02-21T17:09:22.084Z,94969.16
2018-02-21T17:12:25.523Z,94975.03
2018-02-21T17:15:30.314Z,94969.80
2018-02-21T17:18:35.403Z,94972.02
2018-02-21T17:21:39.206Z,94978.16
2018-02-21T17:24:42.482Z,94979.59
2018-02-21T17:27:45.757Z,94980.91
2018-02-21T17:30:49.079Z,94982.97
2018-02-21T17:34:09.237Z,94985.98
2018-02-21T17:37:14.122Z,94987.30
2018-02-21T17:40:17.397Z,94983.75
2018-02-21T17:43:20.690Z,94983.63
2018-02-21T17:46:23.977Z,94980.90
2018-02-21T17:49:27.571Z,94981.55
2018-02-21T17:52:31.947Z,94987.80
2018-02-21T17:55:35.572Z,94985.45
2018-02-21T17:58:39.703Z,94991.97
2018-02-21T18:01:43.089Z,94979.84
2018-02-21T18:04:46.428Z,94982.71
2018-02-21T18:07:49.737Z,94982.98
2018-02-21T18:10:53.021Z,94978.67
2018-02-21T18:13:56.310Z,94980.63
2018-02-21T18:17:00.462Z,94972.26
2018-02-21T18:20:05.508Z,94978.23
2018-02-21T18:23:10.210Z,94979.36
2018-02-21T18:26:13.525Z,94982.36
2018-02-21T18:29:17.202Z,94978.27
2018-02-21T18:32:20.850Z,94983.84
2018-02-21T18:35:26.038Z,94990.75
2018-02-21T18:38:29.774Z,94988.14
2018-02-21T18:41:33.662Z,94990.08
2018-02-21T18:44:37.266Z,94990.23
2018-02-21T18:47:40.667Z,94991.81
2018-02-21T18:50:44.485Z,94988.15
2018-02-21T18:53:48.123Z,94988.16
2018-02-21T18:56:52.470Z,94988.68
2018-02-21T18:59:57.822Z,94983.97
2018-02-21T19:03:01.926Z,94993.22
2018-02-21T19:06:05.459Z,94991.66
2018-02-21T19:09:09.107Z,94986.84
2018-02-21T19:12:13.784Z,94981.64
2018-02-21T19:15:17.348Z,94985.83
2018-02-21T19:18:20.757Z,94987.13
2018-02-21T19:21:24.290Z,94981.62
2018-02-21T19:24:30.088Z,94988.75
2018-02-21T19:27:33.990Z,94985.73
2018-02-21T19:30:37.342Z,94990.33
2018-02-21T19:33:40.763Z,94980.58
2018-02-21T19:36:45.056Z,94986.97
2018-02-21T19:39:48.694Z,94976.65
2018-02-21T19:42:52.179Z,94978.77
2018-02-21T19:45:56.561Z,94981.19
2018-02-21T19:49:00.993Z,94985.87
2018-02-21T19:52:04.571Z,94982.89
2018-02-21T19:55:08.900Z,94979.75
2018-02-21T19:58:12.220Z,94982.21
2018-02-21T20:01:16.371Z,94977.89
2018-02-21T20:04:20.077Z,94973.75
2018-02-21T20:07:23.574Z,94980.16
2018-02-21T20:10:27.477Z,94980.95
2018-02-21T20:13:30.856Z,94970.90
2018-02-21T20:16:34.373Z,94972.59
2018-02-21T20:19:37.766Z,94970.52
2018-02-21T20:22:41.098Z,94977.30
2018-02-21T20:25:45.302Z,94975.31
2018-02-21T20:28:49.380Z,94981.32
2018-02-21T20:31:52.654Z,94981.07
2018-02-21T20:34:56.176Z,94976.23
2018-02-21T20:38:00.294Z,94967.46
2018-02-21T20:41:04.619Z,94971.14
2018-02-21T20:44:07.940Z,94971.23
2018-02-21T20:47:11.226Z,94976.92
2018-02-21T20:50:14.689Z,94972.05
2018-02-21T20:53:17.961Z,94971.09
2018-02-21T20:56:21.295Z,94963.41
2018-02-21T20:59:25.380Z,94967.80
2018-02-21T21:02:28.818Z,94971.47
2018-02-21T21:05:32.865Z,94966.52
2018-02-21T21:08:36.468Z,94969.00
2018-02-21T21:11:39.747Z,94967.83
2018-02-21T21:14:43.875Z,94975.48
2018-02-21T21:17:47.997Z,94965.70
2018-02-21T21:20:51.265Z,94965.43
2018-02-21T21:23:54.541Z,94960.77
2018-02-21T21:26:57.903Z,94959.22
2018-02-21T21:30:01.610Z,94953.97
2018-02-21T21:33:04.877Z,94947.21
2018-02-21T21:36:09.021Z,94947.48
2018-02-21T21:39:12.351Z,94943.83
2018-02-21T21:42:15.914Z,94938.88
2018-02-21T21:45:19.262Z,94936.38
2018-02-21T21:48:22.525Z,94926.46
2018-02-21T21:51:25.789Z,94928.00
2018-02-21T21:54:29.935Z,94923.36
2018-02-21T21:57:33.206Z,94917.07
2018-02-21T22:00:37.251Z,94915.61
2018-02-21T22:03:40.554Z,94907.02
2018-02-21T22:06:43.832Z,94909.17
2018-02-21T22:09:47.873Z,94905.64
2018-02-21T22:12:51.255Z,94904.63
2018-02-21T22:15:54.530Z,94904.61
2018-02-21T22:18:58.861Z,94904.61
2018-02-21T22:22:03.272Z,94901.38
2018-02-21T22:25:07.343Z,94900.77
2018-02-21T22:28:10.607Z,94901.84
2018-02-21T22:31:14.006Z,94903.53
2018-02-21T22:34:17.305Z,94905.62
2018-02-21T22:37:20.570Z,94908.08
2018-02-21T22:40:23.893Z,94904.41
2018-02-21T22:43:27.934Z,94906.86
2018-02-21T22:46:31.216Z,94895.16
2018-02-21T22:49:34.586Z,94896.55
2018-02-21T22:52:37.857Z,94894.84
2018-02-21T22:55:41.140Z,94903.97
2018-02-21T22:58:44.520Z,94898.89
2018-02-21T23:01:47.795Z,94897.24
2018-02-21T23:04:51.837Z,94896.09
2018-02-21T23:08:12.215Z,94897.42
2018-02-21T23:11:16.337Z,94899.27
2018-02-21T23:14:19.645Z,94900.42
2018-02-21T23:17:22.919Z,94889.81
2018-02-21T23:20:26.956Z,94897.27
2018-02-21T23:23:30.235Z,94898.45
2018-02-21T23:26:35.624Z,94890.70
2018-02-21T23:29:38.988Z,94890.00
2018-02-21T23:32:43.031Z,94890.94
2018-02-21T23:35:46.353Z,94886.22
2018-02-21T23:38:49.629Z,94893.55
2018-02-21T23:41:53.005Z,94881.27
2018-02-21T23:44:56.312Z,94878.33
2018-02-21T23:47:59.588Z,94879.34
2018-02-21T23:51:03.726Z,94877.62
2018-02-21T23:54:07.086Z,94878.88
2018-02-21T23:57:11.141Z,94876.64
